createdAt,value
2023-04-04T00:00:35.635Z,2.40
2023-04-04T00:03:02.382Z,2.30
2023-04-04T00:05:29.290Z,2.40
2023-04-04T00:07:55.963Z,2.40
2023-04-04T00:10:22.605Z,2.40
2023-04-04T00:12:49.498Z,2.40
2023-04-04T00:15:16.178Z,2.40
2023-04-04T00:17:42.828Z,2.60
2023-04-04T00:20:10.008Z,2.50
2023-04-04T00:22:36.799Z,2.50
2023-04-04T00:25:03.623Z,2.50
2023-04-04T00:27:30.361Z,2.40
2023-04-04T00:29:57.239Z,2.40
2023-04-04T00:32:23.995Z,2.30
2023-04-04T00:34:54.582Z,2.20
2023-04-04T00:37:21.560Z,2.20
2023-04-04T00:39:49.282Z,2.00
2023-04-04T00:42:16.009Z,2.10
2023-04-04T00:44:42.665Z,2.10
2023-04-04T00:47:09.401Z,2.40
2023-04-04T00:49:37.635Z,2.30
2023-04-04T00:52:07.032Z,2.10
2023-04-04T00:54:34.996Z,2.10
2023-04-04T00:57:02.433Z,2.00
2023-04-04T00:59:29.380Z,2.00
2023-04-04T01:01:56.574Z,1.90
2023-04-04T01:04:23.395Z,1.80
2023-04-04T01:06:50.901Z,1.90
2023-04-04T01:09:18.419Z,1.90
2023-04-04T01:11:45.958Z,2.00
2023-04-04T01:14:13.154Z,2.00
2023-04-04T01:16:41.427Z,2.10
2023-04-04T01:19:11.965Z,2.10
2023-04-04T01:21:39.308Z,2.10
2023-04-04T01:24:08.176Z,2.00
2023-04-04T01:26:41.885Z,2.00
2023-04-04T01:29:09.804Z,2.00
2023-04-04T01:31:49.657Z,2.00
2023-04-04T01:34:28.428Z,1.80
2023-04-04T01:37:06.506Z,1.60
2023-04-04T01:39:49.365Z,1.50
2023-04-04T01:42:16.962Z,1.70
2023-04-04T01:44:46.460Z,1.60
2023-04-04T01:47:13.953Z,1.60
2023-04-04T01:49:41.068Z,1.60
2023-04-04T01:52:09.392Z,1.60
2023-04-04T01:54:37.039Z,1.50
2023-04-04T01:57:03.814Z,1.50
2023-04-04T01:59:30.622Z,1.40
2023-04-04T02:01:57.661Z,1.40
2023-04-04T02:04:25.032Z,1.50
2023-04-04T02:06:52.604Z,1.50
2023-04-04T02:09:19.402Z,1.30
2023-04-04T02:11:46.774Z,1.30
2023-04-04T02:14:13.399Z,1.20
2023-04-04T02:16:40.164Z,1.40
2023-04-04T02:19:06.899Z,1.60
2023-04-04T02:21:36.991Z,1.50
2023-04-04T02:24:03.811Z,1.50
2023-04-04T02:26:30.549Z,1.40
2023-04-04T02:28:58.503Z,1.20
2023-04-04T02:31:25.229Z,1.30
2023-04-04T02:33:51.904Z,1.20
2023-04-04T02:36:21.171Z,1.30
2023-04-04T02:38:49.738Z,1.20
2023-04-04T02:41:16.553Z,1.20
2023-04-04T02:43:43.301Z,1.20
2023-04-04T02:46:20.534Z,1.20
2023-04-04T02:48:48.666Z,1.10
2023-04-04T02:51:15.769Z,1.00
2023-04-04T02:53:42.423Z,0.80
2023-04-04T02:56:19.699Z,0.80
2023-04-04T02:58:46.573Z,0.80
2023-04-04T03:01:13.467Z,0.90
2023-04-04T03:03:40.224Z,1.10
2023-04-04T03:06:07.359Z,1.10
2023-04-04T03:08:35.589Z,0.90
2023-04-04T03:11:02.656Z,1.00
2023-04-04T03:13:29.420Z,1.00
2023-04-04T03:16:04.500Z,1.00
2023-04-04T03:18:41.668Z,0.90
2023-04-04T03:21:08.457Z,0.90
2023-04-04T03:23:35.576Z,0.90
2023-04-04T03:26:02.527Z,0.90
2023-04-04T03:28:29.574Z,0.90
2023-04-04T03:30:56.615Z,0.90
2023-04-04T03:33:23.556Z,0.90
2023-04-04T03:35:50.486Z,1.00
2023-04-04T03:38:17.463Z,1.00
2023-04-04T03:40:44.472Z,0.90
2023-04-04T03:43:12.739Z,0.80
2023-04-04T03:45:40.731Z,0.80
2023-04-04T03:48:10.257Z,0.80
2023-04-04T03:50:38.420Z,0.80
2023-04-04T03:53:05.273Z,0.80
2023-04-04T03:55:33.501Z,0.80
2023-04-04T03:58:00.218Z,0.80
2023-04-04T04:00:26.972Z,0.80
2023-04-04T04:02:53.835Z,0.80
2023-04-04T04:05:20.546Z,0.80
2023-04-04T04:07:47.197Z,0.70
2023-04-04T04:10:16.926Z,0.70
2023-04-04T04:12:43.655Z,0.70
2023-04-04T04:15:11.046Z,0.60
2023-04-04T04:17:40.712Z,0.60
2023-04-04T04:20:09.498Z,0.60
2023-04-04T04:22:47.247Z,0.50
2023-04-04T04:25:14.906Z,0.60
2023-04-04T04:27:45.314Z,0.70
2023-04-04T04:30:13.111Z,0.50
2023-04-04T04:32:43.469Z,0.50
2023-04-04T04:35:10.839Z,0.50
2023-04-04T04:37:38.830Z,0.40
2023-04-04T04:40:07.743Z,0.40
2023-04-04T04:42:45.430Z,0.50
2023-04-04T04:45:13.686Z,0.50
2023-04-04T04:47:44.693Z,0.50
2023-04-04T04:50:16.153Z,0.40
2023-04-04T04:52:45.538Z,0.40
2023-04-04T04:55:13.656Z,0.30
2023-04-04T04:57:48.037Z,0.40
2023-04-04T05:00:20.867Z,0.50
2023-04-04T05:02:48.298Z,0.40
2023-04-04T05:05:19.474Z,0.30
2023-04-04T05:07:47.253Z,0.40
2023-04-04T05:10:14.146Z,0.40
2023-04-04T05:12:45.352Z,0.40
2023-04-04T05:15:17.818Z,0.40
2023-04-04T05:17:47.805Z,0.40
2023-04-04T05:20:14.599Z,0.40
2023-04-04T05:22:44.345Z,0.40
2023-04-04T05:25:13.395Z,0.20
2023-04-04T05:27:48.123Z,0.10
2023-04-04T05:30:24.757Z,-0.10
2023-04-04T05:33:07.076Z,0.00
2023-04-04T05:35:33.864Z,-0.20
2023-04-04T05:38:00.902Z,-0.40
2023-04-04T05:40:33.901Z,-0.30
2023-04-04T05:43:11.329Z,-0.40
2023-04-04T05:46:00.563Z,-0.30
2023-04-04T05:48:29.270Z,-0.20
2023-04-04T05:50:57.006Z,-0.20
2023-04-04T05:53:36.009Z,-0.10
2023-04-04T05:56:15.230Z,0.00
2023-04-04T05:58:46.308Z,0.10
2023-04-04T06:01:14.972Z,0.10
2023-04-04T06:03:44.012Z,0.30
2023-04-04T06:06:15.102Z,0.20
2023-04-04T06:08:53.122Z,0.20
2023-04-04T06:11:23.874Z,0.30
2023-04-04T06:13:54.969Z,0.50
2023-04-04T06:16:22.578Z,0.50
2023-04-04T06:18:50.477Z,0.60
2023-04-04T06:21:17.207Z,0.50
2023-04-04T06:23:44.533Z,0.70
2023-04-04T06:26:12.563Z,0.90
2023-04-04T06:28:53.003Z,1.00
2023-04-04T06:31:29.610Z,1.00
2023-04-04T06:34:01.505Z,1.20
2023-04-04T06:36:31.285Z,1.20
2023-04-04T06:39:01.446Z,1.30
2023-04-04T06:41:28.805Z,1.40
2023-04-04T06:43:56.203Z,1.50
2023-04-04T06:46:23.787Z,1.40
2023-04-04T06:48:50.496Z,1.40
2023-04-04T06:51:17.915Z,1.20
2023-04-04T06:53:47.132Z,1.20
2023-04-04T06:56:13.878Z,1.20
2023-04-04T06:58:40.585Z,1.50
2023-04-04T07:01:07.550Z,1.60
2023-04-04T07:03:34.447Z,1.70
2023-04-04T07:06:04.887Z,1.70
2023-04-04T07:08:36.179Z,1.60
2023-04-04T07:11:04.302Z,1.40
2023-04-04T07:13:30.928Z,1.50
2023-04-04T07:15:57.591Z,1.70
2023-04-04T07:18:24.280Z,1.80
2023-04-04T07:20:51.165Z,1.80
2023-04-04T07:23:17.819Z,1.80
2023-04-04T07:25:44.830Z,1.80
2023-04-04T07:28:13.478Z,1.60
2023-04-04T07:30:40.663Z,1.60
2023-04-04T07:33:07.971Z,1.80
2023-04-04T07:35:35.025Z,1.80
2023-04-04T07:38:01.706Z,1.70
2023-04-04T07:40:28.404Z,1.70
2023-04-04T07:42:55.129Z,1.80
2023-04-04T07:45:24.711Z,1.80
2023-04-04T07:47:51.518Z,1.90
2023-04-04T07:50:18.406Z,1.90
2023-04-04T07:52:51.305Z,2.00
2023-04-04T07:55:19.470Z,2.20
2023-04-04T07:57:47.031Z,2.30
2023-04-04T08:00:14.445Z,2.20
2023-04-04T08:02:43.107Z,2.20
2023-04-04T08:05:10.310Z,2.20
2023-04-04T08:07:36.996Z,2.40
2023-04-04T08:10:03.848Z,2.50
2023-04-04T08:12:30.474Z,2.60
2023-04-04T08:14:57.341Z,2.70
2023-04-04T08:17:24.623Z,2.80
2023-04-04T08:19:51.421Z,2.90
2023-04-04T08:22:18.484Z,3.00
2023-04-04T08:24:46.150Z,3.00
2023-04-04T08:27:14.878Z,3.10
2023-04-04T08:29:42.022Z,3.10
2023-04-04T08:32:09.274Z,3.20
2023-04-04T08:34:36.278Z,3.20
2023-04-04T08:37:02.988Z,3.30
2023-04-04T08:39:30.203Z,3.30
2023-04-04T08:42:05.715Z,3.10
2023-04-04T08:44:34.141Z,3.20
2023-04-04T08:47:05.473Z,3.40
2023-04-04T08:49:38.751Z,3.60
2023-04-04T08:52:06.372Z,3.80
2023-04-04T08:54:35.662Z,3.90
2023-04-04T08:57:04.070Z,4.00
2023-04-04T08:59:31.355Z,4.20
2023-04-04T09:02:05.215Z,4.00
2023-04-04T09:04:32.067Z,3.90
2023-04-04T09:07:02.389Z,4.00
2023-04-04T09:09:31.550Z,4.10
2023-04-04T09:12:01.201Z,4.20
2023-04-04T09:14:30.297Z,4.20
2023-04-04T09:16:57.357Z,4.30
2023-04-04T09:19:26.276Z,4.40
2023-04-04T09:21:53.227Z,4.70
2023-04-04T09:24:19.951Z,4.90
2023-04-04T09:26:51.793Z,4.90
2023-04-04T09:29:20.533Z,4.90
2023-04-04T09:31:49.299Z,5.00
2023-04-04T09:34:18.942Z,5.10
2023-04-04T09:36:46.380Z,5.20
2023-04-04T09:39:16.617Z,5.20
2023-04-04T09:41:45.738Z,5.00
2023-04-04T09:44:13.343Z,4.90
2023-04-04T09:46:41.561Z,5.30
2023-04-04T09:49:19.021Z,5.50
2023-04-04T09:51:50.200Z,5.50
2023-04-04T09:54:29.562Z,5.70
2023-04-04T09:56:58.000Z,5.80
2023-04-04T09:59:24.851Z,5.90
2023-04-04T10:01:54.305Z,5.90
2023-04-04T10:04:21.633Z,5.90
2023-04-04T10:06:48.589Z,6.00
2023-04-04T10:09:15.990Z,6.20
2023-04-04T10:11:42.771Z,6.30
2023-04-04T10:14:09.743Z,6.50
2023-04-04T10:16:38.286Z,6.80
2023-04-04T10:19:08.697Z,6.70
2023-04-04T10:21:35.827Z,6.90
2023-04-04T10:24:08.888Z,7.20
2023-04-04T10:26:36.635Z,7.50
2023-04-04T10:29:04.956Z,7.50
2023-04-04T10:31:34.172Z,7.50
2023-04-04T10:34:12.708Z,7.70
2023-04-04T10:36:51.462Z,7.80
2023-04-04T10:39:33.100Z,8.00
2023-04-04T10:42:01.573Z,8.40
2023-04-04T10:44:41.469Z,8.50
2023-04-04T10:47:21.849Z,8.80
2023-04-04T10:49:50.483Z,8.70
2023-04-04T10:52:19.658Z,8.80
2023-04-04T10:54:47.781Z,8.60
2023-04-04T10:57:15.307Z,8.40
2023-04-04T11:00:13.614Z,8.20
2023-04-04T11:02:52.672Z,8.50
2023-04-04T11:05:30.382Z,8.70
2023-04-04T11:08:08.641Z,8.70
2023-04-04T11:10:42.288Z,9.00
2023-04-04T11:13:16.526Z,9.50
2023-04-04T11:15:57.399Z,9.70
2023-04-04T11:18:45.366Z,9.90
2023-04-04T11:21:27.818Z,10.00
2023-04-04T11:23:54.398Z,9.90
2023-04-04T11:26:30.224Z,9.90
2023-04-04T11:28:58.531Z,10.00
2023-04-04T11:31:27.860Z,10.20
2023-04-04T11:34:09.423Z,10.40
2023-04-04T11:36:36.223Z,10.10
2023-04-04T11:39:29.123Z,10.10
2023-04-04T11:42:08.699Z,10.00
2023-04-04T11:45:03.078Z,9.80
2023-04-04T11:47:31.583Z,9.40
2023-04-04T11:50:01.489Z,9.50
2023-04-04T11:52:35.203Z,10.10
2023-04-04T11:55:02.382Z,10.70
2023-04-04T11:57:29.206Z,10.50
2023-04-04T11:59:56.961Z,10.10
2023-04-04T12:02:34.680Z,10.30
2023-04-04T12:05:01.780Z,10.50
2023-04-04T12:07:29.585Z,10.80
2023-04-04T12:09:57.588Z,10.20
2023-04-04T12:12:24.647Z,10.10
2023-04-04T12:14:54.853Z,10.10
2023-04-04T12:17:29.402Z,10.40
2023-04-04T12:19:56.039Z,10.70
2023-04-04T12:22:22.966Z,10.70
2023-04-04T12:24:49.725Z,10.70
2023-04-04T12:27:17.024Z,10.90
2023-04-04T12:29:45.483Z,11.20
2023-04-04T12:32:14.235Z,11.40
2023-04-04T12:34:49.974Z,11.90
2023-04-04T12:37:19.387Z,12.00
2023-04-04T12:39:50.826Z,11.90
2023-04-04T12:42:24.777Z,11.80
2023-04-04T12:44:54.152Z,11.50
2023-04-04T12:47:23.949Z,11.80
2023-04-04T12:49:55.961Z,11.80
2023-04-04T12:52:33.412Z,12.00
2023-04-04T12:55:08.936Z,12.10
2023-04-04T12:57:38.091Z,12.10
2023-04-04T13:00:08.203Z,12.20
2023-04-04T13:02:36.616Z,12.10
2023-04-04T13:05:06.999Z,11.50
2023-04-04T13:07:43.135Z,11.60
2023-04-04T13:10:14.016Z,11.80
2023-04-04T13:13:01.303Z,11.90
2023-04-04T13:15:54.324Z,11.90
2023-04-04T13:18:24.548Z,11.70
2023-04-04T13:20:52.745Z,11.70
2023-04-04T13:23:20.113Z,11.80
2023-04-04T13:25:46.803Z,11.80
2023-04-04T13:28:14.181Z,11.70
2023-04-04T13:30:46.445Z,11.70
2023-04-04T13:33:13.486Z,11.60
2023-04-04T13:35:42.188Z,12.00
2023-04-04T13:38:08.945Z,11.90
2023-04-04T13:40:36.260Z,11.30
2023-04-04T13:43:04.271Z,11.10
2023-04-04T13:45:36.861Z,11.20
2023-04-04T13:48:04.389Z,11.50
2023-04-04T13:50:32.881Z,11.60
2023-04-04T13:52:59.631Z,12.00
2023-04-04T13:55:27.571Z,12.30
2023-04-04T13:57:54.756Z,12.60
2023-04-04T14:00:22.530Z,12.50
2023-04-04T14:02:52.892Z,12.50
2023-04-04T14:05:21.261Z,12.00
2023-04-04T14:07:48.173Z,11.50
2023-04-04T14:10:15.059Z,11.40
2023-04-04T14:12:42.673Z,12.00
2023-04-04T14:15:12.397Z,12.40
2023-04-04T14:17:39.622Z,12.90
2023-04-04T14:20:08.091Z,13.10
2023-04-04T14:22:35.350Z,13.30
2023-04-04T14:25:02.452Z,13.10
2023-04-04T14:27:29.136Z,12.90
2023-04-04T14:29:56.741Z,12.60
2023-04-04T14:32:27.758Z,12.20
2023-04-04T14:34:54.853Z,12.00
2023-04-04T14:37:21.893Z,12.00
2023-04-04T14:39:48.746Z,11.90
2023-04-04T14:42:15.882Z,12.00
2023-04-04T14:44:42.597Z,11.90
2023-04-04T14:47:09.497Z,11.70
2023-04-04T14:49:36.251Z,11.70
2023-04-04T14:52:03.657Z,11.90
2023-04-04T14:54:30.463Z,12.00
2023-04-04T14:56:57.879Z,11.90
2023-04-04T14:59:24.659Z,11.70
2023-04-04T15:01:51.454Z,11.70
2023-04-04T15:04:18.548Z,11.60
2023-04-04T15:06:45.506Z,11.90
2023-04-04T15:09:12.361Z,11.90
2023-04-04T15:11:39.868Z,11.80
2023-04-04T15:14:06.554Z,11.90
2023-04-04T15:16:34.099Z,12.00
2023-04-04T15:19:01.001Z,11.90
2023-04-04T15:21:31.632Z,11.60
2023-04-04T15:23:58.570Z,11.10
2023-04-04T15:26:25.879Z,10.70
2023-04-04T15:28:52.708Z,10.40
2023-04-04T15:31:20.664Z,10.40
2023-04-04T15:33:47.601Z,10.40
2023-04-04T15:36:14.282Z,10.50
2023-04-04T15:38:41.012Z,10.60
2023-04-04T15:41:08.737Z,10.50
2023-04-04T15:43:36.703Z,10.30
2023-04-04T15:46:03.461Z,10.30
2023-04-04T15:48:30.375Z,9.80
2023-04-04T15:51:04.329Z,9.60
2023-04-04T15:53:31.604Z,9.40
2023-04-04T15:55:59.436Z,9.40
2023-04-04T15:58:26.573Z,9.40
2023-04-04T16:00:53.414Z,9.50
2023-04-04T16:03:20.515Z,9.20
2023-04-04T16:05:47.362Z,9.10
2023-04-04T16:08:14.769Z,9.20
2023-04-04T16:10:43.897Z,9.20
2023-04-04T16:13:11.236Z,9.20
2023-04-04T16:15:38.302Z,9.20
2023-04-04T16:18:05.470Z,9.10
2023-04-04T16:20:32.394Z,9.10
2023-04-04T16:22:59.269Z,8.90
2023-04-04T16:25:26.161Z,8.70
2023-04-04T16:27:52.929Z,8.70
2023-04-04T16:30:19.721Z,8.70
2023-04-04T16:32:47.006Z,8.30
2023-04-04T16:35:13.797Z,8.10
2023-04-04T16:37:40.710Z,8.00
2023-04-04T16:40:08.272Z,8.00
2023-04-04T16:42:35.099Z,8.10
2023-04-04T16:45:10.428Z,8.10
2023-04-04T16:47:38.916Z,7.80
2023-04-04T16:50:07.057Z,7.70
2023-04-04T16:52:33.698Z,7.80
2023-04-04T16:55:00.589Z,7.90
2023-04-04T16:57:27.422Z,7.90
2023-04-04T16:59:54.117Z,7.70
2023-04-04T17:02:21.047Z,7.40
2023-04-04T17:04:47.769Z,7.20
2023-04-04T17:07:14.495Z,7.40
2023-04-04T17:09:41.132Z,7.60
2023-04-04T17:12:08.150Z,7.70
2023-04-04T17:14:35.776Z,7.80
2023-04-04T17:17:03.039Z,7.80
2023-04-04T17:19:31.539Z,7.80
2023-04-04T17:21:59.017Z,7.80
2023-04-04T17:24:27.402Z,7.80
2023-04-04T17:26:56.756Z,7.70
2023-04-04T17:29:26.685Z,7.60
2023-04-04T17:31:55.150Z,7.60
2023-04-04T17:34:22.328Z,7.60
2023-04-04T17:36:49.764Z,7.60
2023-04-04T17:39:16.793Z,7.60
2023-04-04T17:41:50.404Z,7.70
2023-04-04T17:44:19.965Z,7.60
2023-04-04T17:46:46.952Z,7.60
2023-04-04T17:49:20.189Z,7.60
2023-04-04T17:51:50.576Z,7.50
2023-04-04T17:54:17.653Z,7.40
2023-04-04T17:56:46.558Z,7.10
2023-04-04T17:59:14.620Z,7.20
2023-04-04T18:01:41.425Z,7.10
2023-04-04T18:04:11.902Z,7.20
2023-04-04T18:06:40.461Z,7.20
2023-04-04T18:09:09.992Z,7.10
2023-04-04T18:11:37.477Z,7.00
2023-04-04T18:14:04.253Z,6.90
2023-04-04T18:16:38.417Z,6.80
2023-04-04T18:19:10.002Z,6.80
2023-04-04T18:21:38.720Z,6.60
2023-04-04T18:24:11.566Z,6.60
2023-04-04T18:26:38.731Z,6.20
2023-04-04T18:29:06.070Z,6.10
2023-04-04T18:31:36.690Z,6.10
2023-04-04T18:34:06.633Z,6.00
2023-04-04T18:36:39.638Z,5.70
2023-04-04T18:39:06.275Z,5.90
2023-04-04T18:41:36.472Z,5.70
2023-04-04T18:44:03.836Z,5.70
2023-04-04T18:46:30.755Z,5.80
2023-04-04T18:48:57.397Z,5.60
2023-04-04T18:51:24.139Z,5.70
2023-04-04T18:53:57.268Z,5.70
2023-04-04T18:56:27.338Z,5.60
2023-04-04T18:58:54.519Z,5.40
2023-04-04T19:01:24.696Z,5.10
2023-04-04T19:03:55.824Z,5.00
2023-04-04T19:06:29.053Z,5.10
2023-04-04T19:08:58.391Z,5.00
2023-04-04T19:11:25.242Z,5.10
2023-04-04T19:13:52.613Z,5.00
2023-04-04T19:16:19.709Z,4.80
2023-04-04T19:18:47.207Z,4.50
2023-04-04T19:21:13.847Z,4.60
2023-04-04T19:23:40.829Z,4.70
2023-04-04T19:26:08.068Z,4.70
2023-04-04T19:28:34.882Z,4.90
2023-04-04T19:31:04.609Z,4.80
2023-04-04T19:33:33.587Z,4.70
2023-04-04T19:36:09.768Z,4.60
2023-04-04T19:38:39.175Z,4.70
2023-04-04T19:41:16.606Z,4.60
2023-04-04T19:43:45.858Z,4.50
2023-04-04T19:46:17.345Z,4.50
2023-04-04T19:48:49.547Z,4.50
2023-04-04T19:51:22.291Z,4.40
2023-04-04T19:53:51.462Z,4.50
2023-04-04T19:56:21.831Z,4.60
2023-04-04T19:59:07.368Z,4.50
2023-04-04T20:01:36.641Z,4.60
2023-04-04T20:04:08.944Z,4.70
2023-04-04T20:06:38.282Z,4.50
2023-04-04T20:09:12.994Z,4.50
2023-04-04T20:11:40.384Z,4.40
2023-04-04T20:14:09.585Z,4.40
2023-04-04T20:16:36.975Z,4.40
2023-04-04T20:19:06.748Z,4.20
2023-04-04T20:21:35.811Z,4.10
2023-04-04T20:24:10.185Z,4.10
2023-04-04T20:26:59.181Z,4.00
2023-04-04T20:29:34.600Z,4.00
2023-04-04T20:32:07.926Z,4.10
2023-04-04T20:34:42.693Z,4.10
2023-04-04T20:37:20.031Z,3.90
2023-04-04T20:39:46.836Z,3.70
2023-04-04T20:42:31.465Z,3.80
2023-04-04T20:45:13.478Z,3.60
2023-04-04T20:47:51.275Z,3.40
2023-04-04T20:50:20.551Z,3.50
2023-04-04T20:52:58.944Z,3.40
2023-04-04T20:55:29.883Z,3.30
2023-04-04T20:58:11.627Z,3.10
2023-04-04T21:00:42.668Z,3.00
2023-04-04T21:03:29.860Z,3.10
2023-04-04T21:06:02.540Z,3.30
2023-04-04T21:08:50.910Z,3.20
2023-04-04T21:11:30.693Z,3.10
2023-04-04T21:13:57.687Z,3.20
2023-04-04T21:16:26.642Z,3.10
2023-04-04T21:19:01.340Z,3.10
2023-04-04T21:21:29.423Z,2.90
2023-04-04T21:23:58.668Z,3.00
2023-04-04T21:26:36.467Z,2.90
2023-04-04T21:29:24.368Z,2.90
2023-04-04T21:31:53.618Z,2.90
2023-04-04T21:34:23.356Z,3.00
2023-04-04T21:36:53.323Z,3.00
2023-04-04T21:39:28.720Z,2.90
2023-04-04T21:42:06.046Z,2.90
2023-04-04T21:44:34.895Z,2.80
2023-04-04T21:47:01.546Z,2.70
2023-04-04T21:49:28.405Z,2.80
2023-04-04T21:51:55.224Z,2.90
2023-04-04T21:54:22.883Z,2.80
2023-04-04T21:56:49.584Z,2.70
2023-04-04T21:59:16.319Z,2.80
2023-04-04T22:01:43.161Z,2.70
2023-04-04T22:04:10.016Z,2.70
2023-04-04T22:06:36.758Z,2.70
2023-04-04T22:09:04.132Z,2.70
2023-04-04T22:11:30.903Z,2.60
2023-04-04T22:14:04.690Z,2.50
2023-04-04T22:16:32.242Z,2.30
2023-04-04T22:19:01.278Z,2.10
2023-04-04T22:21:28.481Z,1.80
2023-04-04T22:24:02.423Z,1.90
2023-04-04T22:26:32.052Z,2.10
2023-04-04T22:29:00.469Z,2.30
2023-04-04T22:31:28.502Z,2.20
2023-04-04T22:33:55.849Z,2.10
2023-04-04T22:36:24.354Z,2.00
2023-04-04T22:38:56.529Z,2.20
2023-04-04T22:41:28.113Z,2.40
2023-04-04T22:43:56.380Z,2.30
2023-04-04T22:46:25.238Z,2.10
2023-04-04T22:49:05.315Z,2.20
2023-04-04T22:51:35.003Z,2.20
2023-04-04T22:54:02.911Z,2.10
2023-04-04T22:56:29.598Z,1.90
2023-04-04T22:58:56.318Z,2.00
2023-04-04T23:01:23.012Z,2.10
2023-04-04T23:03:49.887Z,2.20
2023-04-04T23:06:16.656Z,2.20
2023-04-04T23:08:46.928Z,2.20
2023-04-04T23:11:13.668Z,2.10
2023-04-04T23:13:42.283Z,1.90
2023-04-04T23:16:09.020Z,1.70
2023-04-04T23:18:35.735Z,1.70
2023-04-04T23:21:03.614Z,1.60
2023-04-04T23:23:30.436Z,1.80
2023-04-04T23:25:58.237Z,2.00
2023-04-04T23:28:24.921Z,2.00
2023-04-04T23:30:52.567Z,1.90
2023-04-04T23:33:19.179Z,1.90
2023-04-04T23:35:45.942Z,1.70
2023-04-04T23:38:13.437Z,1.80
2023-04-04T23:40:40.561Z,2.00
2023-04-04T23:43:07.375Z,2.10
2023-04-04T23:45:38.122Z,1.90
2023-04-04T23:48:04.990Z,1.80
2023-04-04T23:50:32.791Z,1.90
2023-04-04T23:52:59.448Z,1.90
2023-04-04T23:55:27.363Z,1.90
2023-04-04T23:58:02.290Z,1.70
